.
WxDataArchive / Data Records for 2013-01-22
2013-01-21 January 2013 2013-01-23

Data Records for Tuesday, 22 January 2013

Time	Temp	Chill	HIndex	Humid	Dewpt	 Wind 	HiWind	WindDir	Rain 	Barom 
-----	----	-----	------	-----	-----	------	------	-------	-----	----- 
00:00	7.2	7.2	7.2	51	-7.1	2	10	248	0.00	30.231 
00:05	7.2	7.2	7.2	51	-7.1	3	7	270	0.00	30.231 
00:10	7.2	7.2	7.2	51	-7.1	3	7	270	0.00	30.231 
00:15	7.2	7.2	7.2	51	-7.1	2	6	248	0.00	30.228 
00:20	7.0	7.0	7.0	51	-7.3	3	10	248	0.00	30.228 
00:25	7.0	7.0	7.0	52	-6.9	2	6	248	0.00	30.228 
00:30	7.0	7.0	7.0	52	-6.9	1	5	225	0.00	30.228 
00:35	6.9	6.9	6.9	52	-7.0	2	5	248	0.00	30.228 
00:40	6.9	6.9	6.9	52	-7.0	2	6	248	0.00	30.228 
00:45	6.9	6.9	6.9	53	-6.6	3	5	248	0.00	30.230 
00:50	6.9	6.9	6.9	53	-6.6	2	4	248	0.00	30.230 
00:55	6.9	6.9	6.9	53	-6.6	2	6	270	0.00	30.230 
01:00	6.7	6.7	6.7	53	-6.8	3	7	248	0.00	30.229 
01:05	6.7	6.7	6.7	53	-6.8	3	6	270	0.00	30.229 
01:10	6.7	6.7	6.7	53	-6.8	2	5	248	0.00	30.229 
01:15	6.5	6.5	6.5	53	-6.9	3	6	270	0.00	30.234 
01:20	6.5	6.5	6.5	53	-6.9	2	5	248	0.00	30.234 
01:25	6.5	6.5	6.5	53	-6.9	3	9	248	0.00	30.234 
01:30	6.5	6.5	6.5	54	-6.6	2	4	270	0.00	30.231 
01:35	6.3	6.3	6.3	54	-6.7	3	6	248	0.00	30.231 
01:40	6.3	6.3	6.3	54	-6.7	2	5	248	0.00	30.231 
01:45	6.3	6.3	6.3	54	-6.7	3	6	248	0.00	30.235 
01:50	6.1	6.1	6.1	54	-6.9	2	7	248	0.00	30.235 
01:55	6.1	6.1	6.1	54	-6.9	3	6	248	0.00	30.235 
02:00	6.0	6.0	6.0	55	-6.7	2	6	248	0.00	30.238 
02:05	6.0	6.0	6.0	55	-6.7	2	5	248	0.00	30.238 
02:10	5.8	5.8	5.8	55	-6.8	1	4	248	0.00	30.238 
02:15	5.8	5.8	5.8	55	-6.8	2	5	248	0.00	30.243 
02:20	5.8	5.8	5.8	55	-6.8	3	6	248	0.00	30.243 
02:25	5.6	5.6	5.6	56	-6.7	2	4	248	0.00	30.243 
02:30	5.6	5.6	5.6	56	-6.7	2	6	248	0.00	30.252 
02:35	5.6	5.6	5.6	56	-6.7	3	7	248	0.00	30.252 
02:40	5.4	5.4	5.4	56	-6.8	2	6	248	0.00	30.252 
02:45	5.4	5.4	5.4	56	-6.8	2	4	270	0.00	30.256 
02:50	5.4	5.4	5.4	56	-6.8	3	5	248	0.00	30.256 
02:55	5.2	5.2	5.2	56	-7.0	2	4	248	0.00	30.256 
03:00	5.2	5.2	5.2	57	-6.7	2	5	248	0.00	30.257 
03:05	5.2	5.2	5.2	57	-6.7	2	6	248	0.00	30.257 
03:10	5.2	5.2	5.2	57	-6.7	2	7	248	0.00	30.257 
03:15	5.0	5.0	5.0	57	-6.9	2	6	248	0.00	30.262 
03:20	5.0	5.0	5.0	57	-6.9	3	6	248	0.00	30.262 
03:25	5.0	5.0	5.0	57	-6.9	2	4	248	0.00	30.262 
03:30	5.0	5.0	5.0	57	-6.9	2	5	248	0.00	30.260 
03:35	5.0	5.0	5.0	57	-6.9	2	5	270	0.00	30.260 
03:40	4.8	4.8	4.8	58	-6.7	2	5	248	0.00	30.260 
03:45	4.8	4.8	4.8	58	-6.7	2	6	248	0.00	30.264 
03:50	4.8	4.8	4.8	58	-6.7	2	4	248	0.00	30.264 
03:55	4.8	4.8	4.8	58	-6.7	2	5	270	0.00	30.264 
04:00	4.7	4.7	4.7	58	-6.8	1	4	270	0.00	30.272 
04:05	4.7	4.7	4.7	58	-6.8	2	7	248	0.00	30.272 
04:10	4.7	4.7	4.7	58	-6.8	2	6	270	0.00	30.272 
04:15	4.7	4.7	4.7	58	-6.8	2	6	248	0.00	30.274 
04:20	4.5	4.5	4.5	58	-7.0	2	4	248	0.00	30.274 
04:25	4.5	4.5	4.5	58	-7.0	2	3	248	0.00	30.274 
04:30	4.5	4.5	4.5	58	-7.0	1	3	248	0.00	30.275 
04:35	4.3	4.3	4.3	58	-7.2	1	5	248	0.00	30.275 
04:40	4.3	4.3	4.3	58	-7.2	2	7	248	0.00	30.275 
04:45	4.3	4.3	4.3	58	-7.2	2	6	248	0.00	30.277 
04:50	4.3	4.3	4.3	58	-7.2	2	5	248	0.00	30.277 
04:55	4.3	4.3	4.3	58	-7.2	2	4	248	0.00	30.277 
05:00	4.3	4.3	4.3	58	-7.2	2	7	248	0.00	30.280 
05:05	4.1	4.1	4.1	58	-7.4	2	3	248	0.00	30.280 
05:10	4.1	4.1	4.1	58	-7.4	2	6	270	0.00	30.280 
05:15	4.1	4.1	4.1	58	-7.4	1	4	248	0.00	30.291 
05:20	4.1	4.1	4.1	59	-7.0	1	3	248	0.00	30.291 
05:25	3.9	3.9	3.9	59	-7.2	2	4	248	0.00	30.291 
05:30	3.9	3.9	3.9	59	-7.2	2	5	270	0.00	30.294 
05:35	3.9	3.9	3.9	58	-7.5	2	3	248	0.00	30.294 
05:40	3.9	3.9	3.9	58	-7.5	2	3	248	0.00	30.294 
05:45	3.9	3.9	3.9	58	-7.5	1	4	248	0.00	30.303 
05:50	3.9	3.9	3.9	59	-7.2	1	4	248	0.00	30.303 
05:55	3.7	3.7	3.7	59	-7.4	1	4	248	0.00	30.303 
06:00	3.7	3.7	3.7	58	-7.7	2	4	248	0.00	30.309 
06:05	3.9	3.9	3.9	59	-7.2	1	4	248	0.00	30.309 
06:10	3.9	3.9	3.9	58	-7.5	2	6	248	0.00	30.309 
06:15	3.9	3.9	3.9	58	-7.5	2	7	270	0.00	30.312 
06:20	3.9	3.9	3.9	58	-7.5	2	6	248	0.00	30.312 
06:25	3.9	3.9	3.9	58	-7.5	2	4	248	0.00	30.312 
06:30	3.9	3.9	3.9	58	-7.5	1	4	248	0.00	30.320 
06:35	3.7	3.7	3.7	58	-7.7	2	4	248	0.00	30.320 
06:40	3.7	3.7	3.7	58	-7.7	2	5	270	0.00	30.320 
06:45	3.7	3.7	3.7	58	-7.7	1	3	270	0.00	30.325 
06:50	3.5	3.5	3.5	59	-7.6	1	3	270	0.00	30.325 
06:55	3.5	3.5	3.5	59	-7.6	1	4	248	0.00	30.325 
07:00	3.5	3.5	3.5	60	-7.2	1	5	248	0.00	30.327 
07:05	3.5	3.5	3.5	60	-7.2	2	5	292	0.00	30.327 
07:10	3.5	3.5	3.5	60	-7.2	2	4	270	0.00	30.327 
07:15	3.5	3.5	3.5	60	-7.2	1	4	248	0.00	30.336 
07:20	3.5	3.5	3.5	60	-7.2	2	6	248	0.00	30.336 
07:25	3.4	3.4	3.4	60	-7.3	1	3	248	0.00	30.336 
07:30	3.4	3.4	3.4	60	-7.3	1	4	248	0.00	30.341 
07:35	3.4	3.4	3.4	60	-7.3	1	3	248	0.00	30.341 
07:40	3.4	3.4	3.4	61	-7.0	1	4	248	0.00	30.341 
07:45	3.4	3.4	3.4	61	-7.0	1	4	248	0.00	30.342 
07:50	3.2	3.2	3.2	61	-7.2	1	3	248	0.00	30.342 
07:55	3.2	3.2	3.2	61	-7.2	1	4	248	0.00	30.342 
08:00	3.2	3.2	3.2	62	-6.8	1	6	292	0.00	30.342 
08:05	3.2	3.2	3.2	62	-6.8	0	2	248	0.00	30.342 
08:10	3.4	3.4	3.4	62	-6.7	1	3	248	0.00	30.342 
08:15	3.4	3.4	3.4	62	-6.7	1	3	292	0.00	30.348 
08:20	3.4	3.4	3.4	62	-6.7	1	4	248	0.00	30.348 
08:25	3.5	3.5	3.5	62	-6.6	1	3	248	0.00	30.348 
08:30	3.5	3.5	3.5	61	-6.9	1	3	248	0.00	30.349 
08:35	3.7	3.7	3.7	61	-6.7	0	2	315	0.00	30.349 
08:40	3.9	3.9	3.9	61	-6.5	1	4	270	0.00	30.349 
08:45	4.1	4.1	4.1	60	-6.7	2	3	270	0.00	30.356 
08:50	4.3	4.3	4.3	60	-6.5	1	4	248	0.00	30.356 
08:55	4.5	4.5	4.5	60	-6.3	1	3	292	0.00	30.356 
09:00	4.7	4.7	4.7	60	-6.1	1	4	292	0.00	30.360 
09:05	4.8	4.8	4.8	60	-6.0	2	3	248	0.00	30.360 
09:10	4.8	4.8	4.8	59	-6.3	2	6	248	0.00	30.360 
09:15	5.0	5.0	5.0	59	-6.2	2	5	248	0.00	30.363 
09:20	5.2	5.2	5.2	59	-6.0	1	4	248	0.00	30.363 
09:25	5.6	5.6	5.6	58	-5.9	1	4	248	0.00	30.363 
09:30	5.8	5.8	5.8	58	-5.8	2	4	248	0.00	30.368 
09:35	6.0	6.0	6.0	57	-5.9	2	4	270	0.00	30.368 
09:40	6.0	6.0	6.0	57	-5.9	2	5	248	0.00	30.368 
09:45	6.3	6.3	6.3	57	-5.6	2	4	248	0.00	30.371 
09:50	6.5	6.5	6.5	56	-5.8	2	5	270	0.00	30.371 
09:55	6.9	6.9	6.9	56	-5.4	1	3	270	0.00	30.371 
10:00	6.9	6.9	6.9	55	-5.8	3	8	248	0.00	30.374 
10:05	6.9	6.9	6.9	56	-5.4	2	5	248	0.00	30.374 
10:10	7.0	7.0	7.0	56	-5.3	2	4	248	0.00	30.374 
10:15	7.2	7.2	7.2	56	-5.2	2	4	270	0.00	30.376 
10:20	7.6	7.6	7.6	55	-5.2	2	4	270	0.00	30.376 
10:25	7.7	7.7	7.7	55	-5.1	2	6	270	0.00	30.376 
10:30	7.7	7.7	7.7	55	-5.1	2	5	270	0.00	30.379 
10:35	8.1	8.1	8.1	55	-4.7	2	5	248	0.00	30.379 
10:40	8.1	8.1	8.1	54	-5.1	2	5	248	0.00	30.379 
10:45	8.3	8.3	8.3	54	-4.9	2	4	270	0.00	30.383 
10:50	8.8	8.8	8.8	54	-4.4	2	4	248	0.00	30.383 
10:55	8.8	8.8	8.8	53	-4.8	2	4	248	0.00	30.383 
11:00	8.6	8.6	8.6	53	-5.0	2	5	248	0.00	30.386 
11:05	8.6	8.6	8.6	53	-5.0	1	3	270	0.00	30.386 
11:10	9.0	9.0	9.0	53	-4.6	2	6	270	0.00	30.386 
11:15	9.3	9.3	9.3	52	-4.7	2	6	248	0.00	30.385 
11:20	9.9	9.9	9.9	51	-4.6	2	5	270	0.00	30.385 
11:25	9.9	9.9	9.9	50	-5.0	3	6	248	0.00	30.385 
11:30	10.2	10.2	10.2	50	-4.7	1	5	248	0.00	30.382 
11:35	10.2	10.2	10.2	49	-5.1	2	5	248	0.00	30.382 
11:40	10.2	10.2	10.2	50	-4.7	2	5	270	0.00	30.382 
11:45	10.2	10.2	10.2	49	-5.1	2	4	248	0.00	30.382 
11:50	10.0	10.0	10.0	49	-5.3	2	5	270	0.00	30.382 
11:55	10.0	10.0	10.0	49	-5.3	2	6	270	0.00	30.382 
12:00	9.9	9.9	9.9	48	-5.8	2	5	248	0.00	30.378 
12:05	9.9	9.9	9.9	49	-5.4	1	4	292	0.00	30.378 
12:10	10.7	10.7	10.7	50	-4.2	1	5	270	0.00	30.378 
12:15	11.2	11.2	11.2	48	-4.6	2	6	248	0.00	30.367 
12:20	11.1	11.1	11.1	47	-5.1	3	9	248	0.00	30.367 
12:25	10.9	10.9	10.9	46	-5.8	2	4	248	0.00	30.367 
12:30	10.9	10.9	10.9	46	-5.8	2	5	292	0.00	30.366 
12:35	10.9	10.9	10.9	47	-5.3	1	4	248	0.00	30.366 
12:40	11.2	11.2	11.2	46	-5.5	2	6	248	0.00	30.366 
12:45	11.1	11.1	11.1	46	-5.6	1	6	248	0.00	30.357 
12:50	11.6	11.6	11.6	47	-4.7	1	4	270	0.00	30.357 
12:55	11.4	11.4	11.4	46	-5.3	2	6	248	0.00	30.357 
13:00	10.7	10.7	10.7	45	-6.4	2	4	270	0.00	30.354 
13:05	10.9	10.9	10.9	48	-4.9	1	4	270	0.00	30.354 
13:10	11.2	11.2	11.2	47	-5.1	3	6	248	0.00	30.354 
13:15	11.9	11.9	11.9	44	-5.8	2	7	292	0.00	30.341 
13:20	12.3	12.3	12.3	44	-5.4	1	6	248	0.00	30.341 
13:25	11.6	11.6	11.6	46	-5.1	1	4	248	0.00	30.341 
13:30	11.6	11.6	11.6	46	-5.1	1	4	248	0.00	30.339 
13:35	11.7	11.7	11.7	47	-4.6	1	4	248	0.00	30.339 
13:40	11.7	11.7	11.7	45	-5.5	2	4	248	0.00	30.339 
13:45	11.9	11.9	11.9	47	-4.4	2	5	248	0.00	30.337 
13:50	11.9	11.9	11.9	47	-4.4	2	5	248	0.00	30.337 
13:55	11.4	11.4	11.4	45	-5.8	2	6	292	0.00	30.337 
14:00	11.2	11.2	11.2	45	-6.0	2	7	270	0.00	30.338 
14:05	11.2	11.2	11.2	48	-4.6	2	4	248	0.00	30.338 
14:10	11.1	11.1	11.1	47	-5.1	1	4	248	0.00	30.338 
14:15	11.2	11.2	11.2	46	-5.5	2	6	248	0.00	30.341 
14:20	11.6	11.6	11.6	46	-5.1	1	5	248	0.00	30.341 
14:25	11.9	11.9	11.9	46	-4.9	2	7	248	0.00	30.341 
14:30	12.1	12.1	12.1	44	-5.6	2	7	248	0.00	30.342 
14:35	12.3	12.3	12.3	45	-4.9	2	4	248	0.00	30.342 
14:40	11.9	11.9	11.9	43	-6.2	2	4	315	0.00	30.342 
14:45	11.9	11.9	11.9	44	-5.8	2	5	248	0.00	30.351 
14:50	11.9	11.9	11.9	42	-6.7	2	7	292	0.00	30.351 
14:55	12.1	12.1	12.1	42	-6.5	1	4	270	0.00	30.351 
15:00	11.9	11.9	11.9	42	-6.7	2	4	248	0.00	30.348 
15:05	11.9	11.9	11.9	42	-6.7	1	4	248	0.00	30.348 
15:10	11.9	11.9	11.9	43	-6.2	2	5	248	0.00	30.348 
15:15	11.7	11.7	11.7	42	-6.9	2	4	248	0.00	30.345 
15:20	11.9	11.9	11.9	42	-6.7	0	3	248	0.00	30.345 
15:25	12.3	12.3	12.3	41	-6.9	2	5	248	0.00	30.345 
15:30	12.8	12.8	12.8	41	-6.4	2	4	270	0.00	30.340 
15:35	12.9	12.9	12.9	40	-6.8	2	5	248	0.00	30.340 
15:40	12.8	12.8	12.8	40	-6.9	2	5	248	0.00	30.340 
15:45	12.4	12.4	12.4	40	-7.3	2	4	248	0.00	30.342 
15:50	12.1	12.1	12.1	40	-7.5	2	4	270	0.00	30.342 
15:55	12.3	12.3	12.3	40	-7.4	1	4	248	0.00	30.342 
16:00	12.4	12.4	12.4	41	-6.8	1	4	248	0.00	30.341 
16:05	12.4	12.4	12.4	41	-6.8	1	8	225	0.00	30.341 
16:10	12.3	12.3	12.3	41	-6.9	0	2	225	0.00	30.341 
16:15	12.6	12.6	12.6	41	-6.6	1	4	248	0.00	30.341 
16:20	12.8	12.8	12.8	40	-6.9	1	3	248	0.00	30.341 
16:25	12.6	12.6	12.6	41	-6.6	1	4	248	0.00	30.341 
16:30	12.6	12.6	12.6	41	-6.6	1	3	248	0.00	30.345 
16:35	12.4	12.4	12.4	41	-6.8	1	3	248	0.00	30.345 
16:40	12.3	12.3	12.3	40	-7.4	2	4	248	0.00	30.345 
16:45	12.3	12.3	12.3	41	-6.9	1	5	248	0.00	30.343 
16:50	12.3	12.3	12.3	42	-6.4	1	5	248	0.00	30.343 
16:55	12.1	12.1	12.1	41	-7.0	3	6	248	0.00	30.343 
17:00	12.1	12.1	12.1	41	-7.0	2	7	248	0.00	30.340 
17:05	11.7	11.7	11.7	42	-6.9	2	7	248	0.00	30.340 
17:10	11.6	11.6	11.6	42	-7.0	3	7	248	0.00	30.340 
17:15	11.4	11.4	11.4	42	-7.2	2	5	248	0.00	30.345 
17:20	11.4	11.4	11.4	42	-7.2	2	6	248	0.00	30.345 
17:25	11.2	11.2	11.2	43	-6.9	3	10	248	0.00	30.345 
17:30	11.1	11.1	11.1	43	-7.0	1	3	248	0.00	30.355 
17:35	11.1	11.1	11.1	44	-6.5	1	3	248	0.00	30.355 
17:40	11.1	11.1	11.1	44	-6.5	1	4	248	0.00	30.355 
17:45	10.9	10.9	10.9	43	-7.2	1	5	248	0.00	30.358 
17:50	10.9	10.9	10.9	43	-7.2	1	4	248	0.00	30.358 
17:55	10.7	10.7	10.7	43	-7.3	1	6	248	0.00	30.358 
18:00	10.7	10.7	10.7	44	-6.9	2	5	248	0.00	30.358 
18:05	10.5	10.5	10.5	44	-7.1	2	6	248	0.00	30.358 
18:10	10.5	10.5	10.5	44	-7.1	1	3	248	0.00	30.358 
18:15	10.4	10.4	10.4	45	-6.7	1	2	248	0.00	30.358 
18:20	10.4	10.4	10.4	45	-6.7	1	5	248	0.00	30.358 
18:25	10.4	10.4	10.4	45	-6.7	1	2	248	0.00	30.358 
18:30	10.5	10.5	10.5	45	-6.6	1	6	248	0.00	30.360 
18:35	10.5	10.5	10.5	45	-6.6	1	4	248	0.00	30.360 
18:40	10.5	10.5	10.5	45	-6.6	1	4	248	0.00	30.360 
18:45	10.5	10.5	10.5	45	-6.6	1	3	248	0.00	30.361 
18:50	10.5	10.5	10.5	46	-6.1	1	4	270	0.00	30.361 
18:55	10.5	10.5	10.5	46	-6.1	1	3	270	0.00	30.361 
19:00	10.5	10.5	10.5	46	-6.1	1	4	248	0.00	30.357 
19:05	10.4	10.4	10.4	46	-6.2	1	4	248	0.00	30.357 
19:10	10.4	10.4	10.4	47	-5.8	0	2	248	0.00	30.357 
19:15	10.2	10.2	10.2	47	-6.0	0	2	248	0.00	30.359 
19:20	10.2	10.2	10.2	47	-6.0	1	3	248	0.00	30.359 
19:25	10.2	10.2	10.2	47	-6.0	0	2	248	0.00	30.359 
19:30	10.2	10.2	10.2	47	-6.0	1	3	248	0.00	30.359 
19:35	10.2	10.2	10.2	48	-5.5	1	3	270	0.00	30.359 
19:40	10.2	10.2	10.2	48	-5.5	1	3	270	0.00	30.359 
19:45	10.2	10.2	10.2	48	-5.5	1	2	270	0.00	30.357 
19:50	10.2	10.2	10.2	48	-5.5	0	1	270	0.00	30.357 
19:55	10.0	10.0	10.0	48	-5.7	1	2	270	0.00	30.357 
20:00	10.0	10.0	10.0	48	-5.7	0	2	270	0.00	30.353 
20:05	9.9	9.9	9.9	49	-5.4	0	3	270	0.00	30.353 
20:10	9.9	9.9	9.9	49	-5.4	0	1	270	0.00	30.353 
20:15	9.7	9.7	9.7	49	-5.6	0	2	270	0.00	30.350 
20:20	9.7	9.7	9.7	49	-5.6	0	3	270	0.00	30.350 
20:25	9.7	9.7	9.7	50	-5.2	0	2	270	0.00	30.350 
20:30	9.5	9.5	9.5	50	-5.3	0	2	270	0.00	30.351 
20:35	9.5	9.5	9.5	50	-5.3	0	2	270	0.00	30.351 
20:40	9.5	9.5	9.5	50	-5.3	0	1	270	0.00	30.351 
20:45	9.3	9.3	9.3	50	-5.5	0	1	270	0.00	30.354 
20:50	9.3	9.3	9.3	51	-5.1	0	2	270	0.00	30.354 
20:55	9.5	9.5	9.5	51	-4.9	0	1	270	0.00	30.354 
21:00	9.5	9.5	9.5	51	-4.9	0	1	270	0.00	30.354 
21:05	9.5	9.5	9.5	51	-4.9	0	1	270	0.00	30.354 
21:10	9.5	9.5	9.5	51	-4.9	0	1	270	0.00	30.354 
21:15	9.5	9.5	9.5	51	-4.9	0	1	270	0.00	30.351 
21:20	9.5	9.5	9.5	52	-4.5	0	2	270	0.00	30.351 
21:25	9.3	9.3	9.3	52	-4.7	0	1	270	0.00	30.351 
21:30	9.5	9.5	9.5	52	-4.5	0	1	270	0.00	30.354 
21:35	9.5	9.5	9.5	52	-4.5	0	2	270	0.00	30.354 
21:40	9.5	9.5	9.5	52	-4.5	0	1	270	0.00	30.354 
21:45	9.5	9.5	9.5	51	-4.9	1	2	270	0.00	30.354 
21:50	9.7	9.7	9.7	52	-4.4	0	2	270	0.00	30.354 
21:55	9.7	9.7	9.7	51	-4.8	1	4	270	0.00	30.354 
22:00	9.7	9.7	9.7	51	-4.8	1	3	248	0.00	30.352 
22:05	9.7	9.7	9.7	51	-4.8	1	3	248	0.00	30.352 
22:10	9.7	9.7	9.7	51	-4.8	0	3	248	0.00	30.352 
22:15	9.7	9.7	9.7	51	-4.8	1	3	248	0.00	30.354 
22:20	9.7	9.7	9.7	50	-5.2	1	3	248	0.00	30.354 
22:25	9.7	9.7	9.7	50	-5.2	1	5	248	0.00	30.354 
22:30	9.7	9.7	9.7	50	-5.2	1	4	248	0.00	30.356 
22:35	9.7	9.7	9.7	50	-5.2	1	2	248	0.00	30.356 
22:40	9.7	9.7	9.7	50	-5.2	1	4	248	0.00	30.356 
22:45	9.5	9.5	9.5	50	-5.3	1	3	248	0.00	30.355 
22:50	9.5	9.5	9.5	50	-5.3	1	5	248	0.00	30.355 
22:55	9.5	9.5	9.5	50	-5.3	0	2	248	0.00	30.355 
23:00	9.5	9.5	9.5	50	-5.3	1	5	248	0.00	30.355 
23:05	9.3	9.3	9.3	50	-5.5	1	3	248	0.00	30.355 
23:10	9.3	9.3	9.3	50	-5.5	1	4	248	0.00	30.355 
23:15	9.3	9.3	9.3	50	-5.5	0	2	248	0.00	30.356 
23:20	9.2	9.2	9.2	51	-5.2	1	4	248	0.00	30.356 
23:25	9.2	9.2	9.2	51	-5.2	1	3	248	0.00	30.356 
23:30	9.2	9.2	9.2	50	-5.6	1	4	248	0.00	30.360 
23:35	9.2	9.2	9.2	50	-5.6	1	3	248	0.00	30.360 
23:40	9.2	9.2	9.2	50	-5.6	0	2	248	0.00	30.360 
23:45	9.2	9.2	9.2	51	-5.2	0	3	248	0.00	30.363 
23:50	9.2	9.2	9.2	51	-5.2	1	3	248	0.00	30.363 
23:55	9.3	9.3	9.3	50	-5.5	2	6	248	0.00	30.363 

CoCoRaHS
IN-AL-39
A2 Web Hosting
Creative Commons License
GoDaddy
search engine by freefind advanced

loaded 2018-11-15 16:20:46 • last modified 2010-11-18 10:43:29
Privacy PolicyDisclaimer
• wx.awcolley.com is powered by PmWiki v.2002016 •
• all content (unless otherwise noted) © 2018 A W Colley